Time;durP1;ratioP1;P1;durP2;ratioP2;P2;SDS_P1;SDS_P2;PMS_P1;PMS_P2;Temp;Humidity;BMP_temperature;BMP_pressure;BME280_temperature;BME280_humidity;BME280_pressure;Samples;Min_cycle;Max_cycle;Signal;HPM_P1;HPM_P2
2022/11/16 00:01:14;;;;;;;;;;;;;;;;;;5012873;28;4939;-62
2022/11/16 00:03:39;;;;;;;;;;;;;;;;;;5020397;28;5217;-61
2022/11/16 00:06:05;;;;;;;;;;;;;;;;;;5026159;28;5075;-60
2022/11/16 00:08:34;;;;;;;;;;;;;;;;;;5010320;28;5142;-65
2022/11/16 00:11:03;;;;;;;;;;;;;;;;;;5011069;28;1888;-61
2022/11/16 00:13:30;;;;;;;;;;;;;;;;;;5019627;28;5107;-62
2022/11/16 00:15:55;;;;;;;;;;;;;;;;;;5018130;28;4817;-61
2022/11/16 00:18:21;;;;;;;;;;;;;;;;;;5012946;28;4793;-61
2022/11/16 00:20:46;;;;;;;;;;;;;;;;;;5007213;28;5054;-62
2022/11/16 00:23:11;;;;;;;;;;;;;;;;;;5011507;28;1856;-59
2022/11/16 00:25:37;;;;;;;;;;;;;;;;;;5020361;28;4454;-61
2022/11/16 00:28:02;;;;;;;;;;;;;;;;;;5040583;28;5115;-62
2022/11/16 00:30:27;;;;;;;;;;;;;;;;;;5033420;28;4977;-61
2022/11/16 00:32:52;;;;;;;;;;;;;;;;;;5030899;28;4985;-60
2022/11/16 00:35:17;;;;;;;;;;;;;;;;;;5033009;28;1906;-61
2022/11/16 00:37:43;;;;;;;;;;;;;;;;;;5031167;28;4981;-59
2022/11/16 00:40:08;;;;;;;;;;;;;;;;;;5032625;28;5070;-61
2022/11/16 00:42:34;;;;;;;;;;;;;;;;;;5043064;28;4747;-61
2022/11/16 00:44:59;;;;;;;;;;;;;;;;;;5014735;28;4493;-60
2022/11/16 00:47:25;;;;;;;;;;;;;;;;;;5013263;28;5364;-60
2022/11/16 00:49:50;;;;;;;;;;;;;;;;;;5017825;28;1888;-61
2022/11/16 00:52:15;;;;;;;;;;;;;;;;;;5024597;28;5034;-61
2022/11/16 00:54:41;;;;;;;;;;;;;;;;;;5013067;28;5204;-60
2022/11/16 00:57:06;;;;;;;;;;;;;;;;;;5024506;28;5191;-61
2022/11/16 00:59:31;;;;;;;;;;;;;;;;;;5020624;28;5001;-60
2022/11/16 01:01:56;;;;;;;;;;;;;;;;;;5013100;28;1772;-58
2022/11/16 01:04:22;;;;;;;;;;;;;;;;;;5028890;28;4504;-60
2022/11/16 01:06:47;;;;;;;;;;;;;;;;;;5022884;28;4713;-61
2022/11/16 01:09:12;;;;;;;;;;;;;;;;;;5021477;28;5311;-60
2022/11/16 01:14:21;;;;;;;;;;;;;;;;;;5036097;28;5205;-61
2022/11/16 01:16:48;;;;;;;;;;;;;;;;;;5016024;28;1755;-58
2022/11/16 01:19:13;;;;;;;;;;;;;;;;;;5012325;28;5030;-61
2022/11/16 01:21:38;;;;;;;;;;;;;;;;;;5012204;28;5117;-61
2022/11/16 01:24:03;;;;;;;;;;;;;;;;;;5035093;28;5118;-61
2022/11/16 01:26:29;;;;;;;;;;;;;;;;;;4992608;28;4606;-61
2022/11/16 01:28:54;;;;;;;;;;;;;;;;;;5011952;28;4735;-61
2022/11/16 01:31:19;;;;;;;;;;;;;;;;;;5000518;28;4926;-60
2022/11/16 01:33:44;;;;;;;;;;;;;;;;;;4991766;28;4997;-57
2022/11/16 01:36:16;;;;;;;;;;;;;;;;;;5000752;28;4869;-57
2022/11/16 01:38:41;;;;;;;;;;;;;;;;;;4993548;28;5117;-59
2022/11/16 01:41:07;;;;;;;;;;;;;;;;;;4997138;28;1840;-59
2022/11/16 01:43:51;;;;;;;;;;;;;;;;;;5011830;28;4508;-58
2022/11/16 01:46:16;;;;;;;;;;;;;;;;;;5007313;28;5029;-57
2022/11/16 01:48:42;;;;;;;;;;;;;;;;;;5022911;28;5157;-59
2022/11/16 01:51:07;;;;;;;;;;;;;;;;;;5030990;28;5111;-58
2022/11/16 01:53:32;;;;;;;;;;;;;;;;;;5029625;28;5995;-56
2022/11/16 01:55:57;;;;;;;;;;;;;;;;;;5030315;28;1946;-62
2022/11/16 01:58:23;;;;;;;;;;;;;;;;;;5028856;28;5096;-60
2022/11/16 02:00:48;;;;;;;;;;;;;;;;;;5022615;28;4964;-61
2022/11/16 02:03:16;;;;;;;;;;;;;;;;;;5025349;28;5088;-61
2022/11/16 02:05:41;;;;;;;;;;;;;;;;;;5020216;28;4577;-59
2022/11/16 02:10:59;;;;;;;;;;;;;;;;;;5024107;28;4780;-61
2022/11/16 02:13:24;;;;;;;;;;;;;;;;;;5021793;28;4612;-61
2022/11/16 02:15:59;;;;;;;;;;;;;;;;;;5017850;28;4491;-63
2022/11/16 02:18:33;;;;;;;;;;;;;;;;;;5027067;28;4947;-61
2022/11/16 02:21:05;;;;;;;;;;;;;;;;;;5011048;28;4916;-63
2022/11/16 02:23:49;;;;;;;;;;;;;;;;;;5027407;28;4558;-62
2022/11/16 02:26:14;;;;;;;;;;;;;;;;;;5031256;28;1533;-61
2022/11/16 02:28:45;;;;;;;;;;;;;;;;;;5028888;28;4508;-62
2022/11/16 02:31:22;;;;;;;;;;;;;;;;;;5019549;28;5087;-61
2022/11/16 02:33:47;;;;;;;;;;;;;;;;;;5029239;28;5059;-61
2022/11/16 02:36:13;;;;;;;;;;;;;;;;;;5030601;28;5076;-63
2022/11/16 02:38:39;;;;;;;;;;;;;;;;;;5029199;28;5400;-60
2022/11/16 02:41:07;;;;;;;;;;;;;;;;;;5029833;28;1409;-61
2022/11/16 02:43:42;;;;;;;;;;;;;;;;;;5025614;28;5173;-62
2022/11/16 02:46:12;;;;;;;;;;;;;;;;;;5036652;28;5269;-62
2022/11/16 02:48:38;;;;;;;;;;;;;;;;;;5025587;28;5141;-59
2022/11/16 02:51:05;;;;;;;;;;;;;;;;;;5041341;28;4734;-63
2022/11/16 02:53:31;;;;;;;;;;;;;;;;;;5037611;28;4725;-62
2022/11/16 02:55:56;;;;;;;;;;;;;;;;;;5029527;28;1991;-62
2022/11/16 02:58:24;;;;;;;;;;;;;;;;;;5026463;28;4968;-62
2022/11/16 03:00:58;;;;;;;;;;;;;;;;;;5025940;28;5010;-61
2022/11/16 03:03:33;;;;;;;;;;;;;;;;;;5024883;28;4473;-62
2022/11/16 03:06:01;;;;;;;;;;;;;;;;;;5022183;28;5164;-59
2022/11/16 03:08:29;;;;;;;;;;;;;;;;;;5032224;28;4679;-63
2022/11/16 03:13:40;;;;;;;;;;;;;;;;;;5022655;28;4546;-61
2022/11/16 03:16:07;;;;;;;;;;;;;;;;;;5023028;28;4916;-61
2022/11/16 03:18:32;;;;;;;;;;;;;;;;;;5044509;28;4971;-58
2022/11/16 03:21:04;;;;;;;;;;;;;;;;;;5025363;28;5018;-61
2022/11/16 03:23:29;;;;;;;;;;;;;;;;;;5029472;28;5150;-62
2022/11/16 03:25:55;;;;;;;;;;;;;;;;;;5036657;28;1813;-62
2022/11/16 03:28:21;;;;;;;;;;;;;;;;;;5047885;28;5902;-61
2022/11/16 03:30:48;;;;;;;;;;;;;;;;;;5027693;28;5148;-61
2022/11/16 03:33:18;;;;;;;;;;;;;;;;;;5011499;28;5027;-62
2022/11/16 03:35:49;;;;;;;;;;;;;;;;;;5027885;28;5143;-62
2022/11/16 03:38:14;;;;;;;;;;;;;;;;;;5028392;28;1743;-61
2022/11/16 03:40:39;;;;;;;;;;;;;;;;;;5027762;28;4994;-62
2022/11/16 03:43:05;;;;;;;;;;;;;;;;;;5029099;28;5237;-62
2022/11/16 03:45:30;;;;;;;;;;;;;;;;;;5027678;28;4600;-60
2022/11/16 03:47:56;;;;;;;;;;;;;;;;;;5009298;28;4876;-61
2022/11/16 03:50:21;;;;;;;;;;;;;;;;;;5009729;28;4446;-61
2022/11/16 03:52:46;;;;;;;;;;;;;;;;;;5025349;28;1118;-56
2022/11/16 03:55:11;;;;;;;;;;;;;;;;;;5029216;28;4944;-61
2022/11/16 03:57:37;;;;;;;;;;;;;;;;;;5029063;28;5169;-61
2022/11/16 04:00:03;;;;;;;;;;;;;;;;;;5028738;28;5198;-62
2022/11/16 04:02:28;;;;;;;;;;;;;;;;;;5029291;28;5104;-63
2022/11/16 04:24:14;;;;;;;;;;;;;;;;;;4993029;28;5448;-61
2022/11/16 04:29:24;;;;;;;;;;;;;;;;;;4995023;28;5034;-59
2022/11/16 04:40:01;;;;;;;;;;;;;;;;;;4988886;28;5341;-60
2022/11/16 04:42:26;;;;;;;;;;;;;;;;;;4989566;28;4455;-59
2022/11/16 04:47:35;;;;;;;;;;;;;;;;;;4992634;28;5044;-60
2022/11/16 04:50:00;;;;;;;;;;;;;;;;;;4991579;28;1945;-59
2022/11/16 04:52:26;;;;;;;;;;;;;;;;;;4995995;28;5009;-60
2022/11/16 04:54:51;;;;;;;;;;;;;;;;;;4995526;28;4467;-60
2022/11/16 04:57:16;;;;;;;;;;;;;;;;;;5007829;28;4427;-56
2022/11/16 04:59:41;;;;;;;;;;;;;;;;;;4989319;28;5026;-58
2022/11/16 05:02:07;;;;;;;;;;;;;;;;;;4994794;28;992;-61
2022/11/16 05:04:32;;;;;;;;;;;;;;;;;;5008716;28;4445;-61
2022/11/16 05:06:57;;;;;;;;;;;;;;;;;;5008747;28;5040;-61
2022/11/16 05:09:22;;;;;;;;;;;;;;;;;;5009006;28;5158;-60
2022/11/16 05:11:48;;;;;;;;;;;;;;;;;;5014648;28;5006;-61
2022/11/16 05:14:13;;;;;;;;;;;;;;;;;;5031187;28;1156;-61
2022/11/16 05:16:38;;;;;;;;;;;;;;;;;;5012643;28;4513;-61
2022/11/16 05:21:47;;;;;;;;;;;;;;;;;;5030188;28;4465;-60
2022/11/16 05:26:56;;;;;;;;;;;;;;;;;;5031539;28;5207;-62
2022/11/16 05:29:21;;;;;;;;;;;;;;;;;;5031542;28;4959;-60
2022/11/16 05:31:46;;;;;;;;;;;;;;;;;;5031212;28;1868;-58
2022/11/16 05:34:12;;;;;;;;;;;;;;;;;;5015966;28;5100;-61
2022/11/16 05:36:37;;;;;;;;;;;;;;;;;;5023215;28;4768;-61
2022/11/16 05:39:02;;;;;;;;;;;;;;;;;;5011520;28;5722;-61
2022/11/16 05:41:27;;;;;;;;;;;;;;;;;;5019946;28;5173;-61
2022/11/16 05:43:54;;;;;;;;;;;;;;;;;;5031767;28;1074;-62
2022/11/16 05:46:19;;;;;;;;;;;;;;;;;;5023126;28;4532;-62
2022/11/16 05:48:44;;;;;;;;;;;;;;;;;;5011282;28;4480;-60
2022/11/16 05:51:09;;;;;;;;;;;;;;;;;;5012903;28;5160;-62
2022/11/16 05:53:35;;;;;;;;;;;;;;;;;;5023162;28;4755;-61
2022/11/16 05:56:00;;;;;;;;;;;;;;;;;;5011154;28;1926;-62
2022/11/16 05:58:25;;;;;;;;;;;;;;;;;;5011839;28;5840;-61
2022/11/16 06:00:50;;;;;;;;;;;;;;;;;;5022332;28;4487;-62
2022/11/16 06:03:15;;;;;;;;;;;;;;;;;;5022685;28;5018;-62
2022/11/16 06:05:41;;;;;;;;;;;;;;;;;;5015106;28;5103;-61
2022/11/16 06:08:07;;;;;;;;;;;;;;;;;;5026610;28;1864;-58
2022/11/16 06:10:32;;;;;;;;;;;;;;;;;;5022819;28;5099;-61
2022/11/16 06:12:57;;;;;;;;;;;;;;;;;;5031045;28;4427;-61
2022/11/16 06:15:22;;;;;;;;;;;;;;;;;;5011739;28;5148;-61
2022/11/16 06:17:48;;;;;;;;;;;;;;;;;;5013761;28;4675;-61
2022/11/16 06:20:13;;;;;;;;;;;;;;;;;;5029624;28;1875;-61
2022/11/16 06:22:38;;;;;;;;;;;;;;;;;;5007194;28;4537;-61
2022/11/16 06:25:05;;;;;;;;;;;;;;;;;;5017423;28;5066;-62
2022/11/16 06:27:31;;;;;;;;;;;;;;;;;;5024188;28;4754;-62
2022/11/16 06:29:56;;;;;;;;;;;;;;;;;;5014748;28;5436;-63
2022/11/16 06:32:21;;;;;;;;;;;;;;;;;;5028864;28;5029;-62
2022/11/16 06:34:46;;;;;;;;;;;;;;;;;;5011152;28;1922;-56
2022/11/16 06:37:11;;;;;;;;;;;;;;;;;;5014152;28;5069;-60
2022/11/16 06:39:37;;;;;;;;;;;;;;;;;;5025544;28;5241;-60
2022/11/16 06:42:02;;;;;;;;;;;;;;;;;;5045244;28;5140;-60
2022/11/16 06:44:27;;;;;;;;;;;;;;;;;;5024093;28;4626;-61
2022/11/16 06:46:52;;;;;;;;;;;;;;;;;;5012076;28;1805;-62
2022/11/16 06:49:18;;;;;;;;;;;;;;;;;;5022554;28;4597;-62
2022/11/16 06:51:43;;;;;;;;;;;;;;;;;;5019380;28;4485;-60
2022/11/16 06:54:08;;;;;;;;;;;;;;;;;;5010519;28;4704;-61
2022/11/16 06:56:34;;;;;;;;;;;;;;;;;;5027180;28;5081;-60
2022/11/16 06:58:59;;;;;;;;;;;;;;;;;;5022005;28;1814;-58
2022/11/16 07:01:24;;;;;;;;;;;;;;;;;;5012903;28;4627;-59
2022/11/16 07:03:49;;;;;;;;;;;;;;;;;;5039401;28;4870;-61
2022/11/16 07:06:15;;;;;;;;;;;;;;;;;;5049446;28;5011;-62
2022/11/16 07:08:40;;;;;;;;;;;;;;;;;;5049298;28;4968;-61
2022/11/16 07:11:06;;;;;;;;;;;;;;;;;;5033283;28;1077;-62
2022/11/16 07:13:32;;;;;;;;;;;;;;;;;;5044711;28;5125;-60
2022/11/16 07:16:01;;;;;;;;;;;;;;;;;;5028031;28;5015;-63
2022/11/16 07:18:26;;;;;;;;;;;;;;;;;;5024617;28;5125;-62
2022/11/16 07:20:51;;;;;;;;;;;;;;;;;;5027903;28;5122;-62
2022/11/16 07:23:17;;;;;;;;;;;;;;;;;;5029942;28;995;-60
2022/11/16 07:25:45;;;;;;;;;;;;;;;;;;5029443;28;4806;-62
2022/11/16 07:28:10;;;;;;;;;;;;;;;;;;4996253;28;5283;-61
2022/11/16 07:30:36;;;;;;;;;;;;;;;;;;4990845;28;4981;-63
2022/11/16 07:33:01;;;;;;;;;;;;;;;;;;4991214;28;5240;-63
2022/11/16 07:35:27;;;;;;;;;;;;;;;;;;5005921;28;5123;-63
2022/11/16 07:37:52;;;;;;;;;;;;;;;;;;5008751;28;1850;-63
2022/11/16 07:40:17;;;;;;;;;;;;;;;;;;4990058;28;5258;-63
2022/11/16 07:42:44;;;;;;;;;;;;;;;;;;4992107;28;4574;-62
2022/11/16 07:45:09;;;;;;;;;;;;;;;;;;5009003;28;4932;-62
2022/11/16 07:47:35;;;;;;;;;;;;;;;;;;4994879;28;5087;-60
2022/11/16 07:50:01;;;;;;;;;;;;;;;;;;5003646;28;1931;-61
2022/11/16 07:52:26;;;;;;;;;;;;;;;;;;5000114;28;4990;-60
2022/11/16 07:54:51;;;;;;;;;;;;;;;;;;4989452;28;4934;-59
2022/11/16 07:57:17;;;;;;;;;;;;;;;;;;5001301;28;4631;-57
2022/11/16 07:59:42;;;;;;;;;;;;;;;;;;5009555;28;5033;-62
2022/11/16 08:02:08;;;;;;;;;;;;;;;;;;5009548;28;1231;-62
2022/11/16 08:04:33;;;;;;;;;;;;;;;;;;5009211;28;5075;-62
2022/11/16 08:06:58;;;;;;;;;;;;;;;;;;5006055;28;5012;-66
2022/11/16 08:09:24;;;;;;;;;;;;;;;;;;4995040;28;5077;-62
2022/11/16 08:11:50;;;;;;;;;;;;;;;;;;4996061;28;5199;-61
2022/11/16 08:14:17;;;;;;;;;;;;;;;;;;5000613;28;1616;-62
2022/11/16 08:16:42;;;;;;;;;;;;;;;;;;4992009;28;4646;-62
2022/11/16 08:19:09;;;;;;;;;;;;;;;;;;5003593;28;4982;-61
2022/11/16 08:21:34;;;;;;;;;;;;;;;;;;5007305;28;4898;-60
2022/11/16 08:23:59;;;;;;;;;;;;;;;;;;5013744;28;5151;-63
2022/11/16 08:26:24;;;;;;;;;;;;;;;;;;5024377;28;5036;-60
2022/11/16 08:28:52;;;;;;;;;;;;;;;;;;5025395;28;4814;-61
2022/11/16 08:31:19;;;;;;;;;;;;;;;;;;5020287;28;4997;-68
2022/11/16 08:33:45;;;;;;;;;;;;;;;;;;5025226;28;5092;-68
2022/11/16 08:36:16;;;;;;;;;;;;;;;;;;5026381;28;5141;-67
2022/11/16 08:38:41;;;;;;;;;;;;;;;;;;5020128;28;5310;-65
2022/11/16 08:41:06;;;;;;;;;;;;;;;;;;5025048;28;2194;-67
2022/11/16 08:43:32;;;;;;;;;;;;;;;;;;5026450;28;5041;-62
2022/11/16 08:45:58;;;;;;;;;;;;;;;;;;5029559;28;5187;-61
2022/11/16 08:48:24;;;;;;;;;;;;;;;;;;5019860;28;4534;-61
2022/11/16 08:50:49;;;;;;;;;;;;;;;;;;5031682;28;4492;-58
2022/11/16 08:53:14;;;;;;;;;;;;;;;;;;5023876;28;1931;-61
2022/11/16 08:55:41;;;;;;;;;;;;;;;;;;5022477;28;5033;-60
2022/11/16 08:58:06;;;;;;;;;;;;;;;;;;5021135;28;4453;-59
2022/11/16 09:00:31;;;;;;;;;;;;;;;;;;5028567;28;5054;-58
2022/11/16 09:02:57;;;;;;;;;;;;;;;;;;5023103;28;5160;-57
2022/11/16 09:05:22;;;;;;;;;;;;;;;;;;5031816;28;5157;-60
2022/11/16 09:07:47;;;;;;;;;;;;;;;;;;5020109;28;1777;-59
2022/11/16 09:10:12;;;;;;;;;;;;;;;;;;5024434;28;5060;-60
2022/11/16 09:12:38;;;;;;;;;;;;;;;;;;5015990;28;5130;-64
2022/11/16 09:15:04;;;;;;;;;;;;;;;;;;5023795;28;5154;-63
2022/11/16 09:17:29;;;;;;;;;;;;;;;;;;5017907;28;5240;-64
2022/11/16 09:19:54;;;;;;;;;;;;;;;;;;5020456;28;1991;-61
2022/11/16 09:22:19;;;;;;;;;;;;;;;;;;5023891;28;5026;-62
2022/11/16 09:24:45;;;;;;;;;;;;;;;;;;5019243;28;5263;-63
2022/11/16 09:27:10;;;;;;;;;;;;;;;;;;5015729;28;4886;-66
2022/11/16 09:29:35;;;;;;;;;;;;;;;;;;5017467;28;5188;-61
2022/11/16 09:32:01;;;;;;;;;;;;;;;;;;5019896;28;1797;-61
2022/11/16 09:34:27;;;;;;;;;;;;;;;;;;5023134;28;4425;-61
2022/11/16 09:36:52;;;;;;;;;;;;;;;;;;5023410;28;5007;-62
2022/11/16 09:39:17;;;;;;;;;;;;;;;;;;5026911;28;4979;-61
2022/11/16 09:41:42;;;;;;;;;;;;;;;;;;5019088;28;5144;-62
2022/11/16 09:44:15;;;;;;;;;;;;;;;;;;5023337;28;1337;-62
2022/11/16 09:46:41;;;;;;;;;;;;;;;;;;5035678;28;5014;-63
2022/11/16 09:49:11;;;;;;;;;;;;;;;;;;5021201;28;5062;-62
2022/11/16 09:51:36;;;;;;;;;;;;;;;;;;5021635;28;4618;-64
2022/11/16 09:54:10;;;;;;;;;;;;;;;;;;5023635;28;5126;-61
2022/11/16 09:56:39;;;;;;;;;;;;;;;;;;5033337;28;4623;-58
2022/11/16 09:59:04;;;;;;;;;;;;;;;;;;5025521;28;1785;-58
2022/11/16 10:01:43;;;;;;;;;;;;;;;;;;5024051;28;4418;-59
2022/11/16 10:04:27;;;;;;;;;;;;;;;;;;5039818;28;4625;-61
2022/11/16 10:06:59;;;;;;;;;;;;;;;;;;5030767;28;4750;-62
2022/11/16 10:09:25;;;;;;;;;;;;;;;;;;5035349;28;5081;-58
2022/11/16 10:11:50;;;;;;;;;;;;;;;;;;5019332;28;4603;-66
2022/11/16 10:14:15;;;;;;;;;;;;;;;;;;5025096;28;1777;-64
2022/11/16 10:16:46;;;;;;;;;;;;;;;;;;5021239;28;5024;-59
2022/11/16 10:19:12;;;;;;;;;;;;;;;;;;5025960;28;5003;-66
2022/11/16 10:21:41;;;;;;;;;;;;;;;;;;5012711;28;5216;-61
2022/11/16 10:24:25;;;;;;;;;;;;;;;;;;5013867;28;5045;-61
2022/11/16 10:26:59;;;;;;;;;;;;;;;;;;5028377;28;4638;-65
2022/11/16 10:29:30;;;;;;;;;;;;;;;;;;5022079;28;4612;-66
2022/11/16 10:31:55;;;;;;;;;;;;;;;;;;5025248;28;1904;-52
2022/11/16 10:34:21;;;;;;;;;;;;;;;;;;5017711;28;5043;-59
2022/11/16 10:36:47;;;;;;;;;;;;;;;;;;5019981;28;5324;-58
2022/11/16 10:39:15;;;;;;;;;;;;;;;;;;5018893;28;5147;-62
2022/11/16 10:41:43;;;;;;;;;;;;;;;;;;5035042;28;5368;-63
2022/11/16 10:44:11;;;;;;;;;;;;;;;;;;5037541;28;1787;-60
2022/11/16 10:46:38;;;;;;;;;;;;;;;;;;5025810;28;4474;-61
2022/11/16 10:49:12;;;;;;;;;;;;;;;;;;4996459;28;5105;-60
2022/11/16 10:51:38;;;;;;;;;;;;;;;;;;5000257;28;4849;-62
2022/11/16 10:54:12;;;;;;;;;;;;;;;;;;4999332;28;5051;-59
2022/11/16 10:56:40;;;;;;;;;;;;;;;;;;4994674;28;5109;-60
2022/11/16 10:59:09;;;;;;;;;;;;;;;;;;4995558;28;1491;-61
2022/11/16 11:01:35;;;;;;;;;;;;;;;;;;4999671;28;5048;-62
2022/11/16 11:04:33;;;;;;;;;;;;;;;;;;5006379;28;5226;-61
2022/11/16 11:06:59;;;;;;;;;;;;;;;;;;4996930;28;5157;-62
2022/11/16 11:09:29;;;;;;;;;;;;;;;;;;5006890;28;4710;-63
2022/11/16 11:15:15;;;;;;;;;;;;;;;;;;5017114;28;4992;-61
2022/11/16 11:17:41;;;;;;;;;;;;;;;;;;5009593;28;5221;-60
2022/11/16 11:20:07;;;;;;;;;;;;;;;;;;5021886;28;1544;-62
2022/11/16 11:22:32;;;;;;;;;;;;;;;;;;5019249;28;4923;-61
2022/11/16 11:24:57;;;;;;;;;;;;;;;;;;5034917;28;4986;-62
2022/11/16 11:27:23;;;;;;;;;;;;;;;;;;5031018;28;5316;-61
2022/11/16 11:29:53;;;;;;;;;;;;;;;;;;4992605;28;4512;-59
2022/11/16 11:32:18;;;;;;;;;;;;;;;;;;5009041;28;1826;-64
2022/11/16 11:34:47;;;;;;;;;;;;;;;;;;5015347;28;5067;-66
2022/11/16 11:37:16;;;;;;;;;;;;;;;;;;5025105;28;4459;-64
2022/11/16 11:39:41;;;;;;;;;;;;;;;;;;5023113;28;4491;-64
2022/11/16 11:42:13;;;;;;;;;;;;;;;;;;5053087;28;5115;-63
2022/11/16 11:44:41;;;;;;;;;;;;;;;;;;4996641;28;5261;-64
2022/11/16 11:47:11;;;;;;;;;;;;;;;;;;4991395;28;1811;-68
2022/11/16 11:49:41;;;;;;;;;;;;;;;;;;5021102;28;5067;-67
2022/11/16 11:52:20;;;;;;;;;;;;;;;;;;5016743;28;5128;-64
2022/11/16 11:54:48;;;;;;;;;;;;;;;;;;5012833;28;5087;-67
2022/11/16 11:57:19;;;;;;;;;;;;;;;;;;4989011;28;5047;-68
2022/11/16 11:59:44;;;;;;;;;;;;;;;;;;4989049;28;5074;-63
2022/11/16 12:02:27;;;;;;;;;;;;;;;;;;4999489;28;1866;-60
2022/11/16 12:05:11;;;;;;;;;;;;;;;;;;5025959;28;4729;-60
2022/11/16 12:07:41;;;;;;;;;;;;;;;;;;5019897;28;4982;-61
2022/11/16 12:10:27;;;;;;;;;;;;;;;;;;5031977;28;5082;-60
2022/11/16 12:13:16;;;;;;;;;;;;;;;;;;5026029;28;4820;-59
2022/11/16 12:15:55;;;;;;;;;;;;;;;;;;5043489;28;5014;-59
2022/11/16 12:18:45;;;;;;;;;;;;;;;;;;5030964;28;5146;-61
2022/11/16 12:21:14;;;;;;;;;;;;;;;;;;5043930;28;4705;-61
2022/11/16 12:23:39;;;;;;;;;;;;;;;;;;5030968;28;5042;-60
2022/11/16 12:26:04;;;;;;;;;;;;;;;;;;5022240;28;2018;-60
2022/11/16 12:28:32;;;;;;;;;;;;;;;;;;5004679;28;4861;-58
2022/11/16 12:31:14;;;;;;;;;;;;;;;;;;5012914;28;4591;-59
2022/11/16 12:33:43;;;;;;;;;;;;;;;;;;5028666;28;4974;-60
2022/11/16 12:36:17;;;;;;;;;;;;;;;;;;5020736;28;5424;-58
2022/11/16 12:38:48;;;;;;;;;;;;;;;;;;5024393;28;4653;-60
2022/11/16 12:41:30;;;;;;;;;;;;;;;;;;5017716;28;1818;-60
2022/11/16 12:43:59;;;;;;;;;;;;;;;;;;5009900;28;4431;-59
2022/11/16 12:46:27;;;;;;;;;;;;;;;;;;5021338;28;5271;-65
2022/11/16 12:49:01;;;;;;;;;;;;;;;;;;5003934;28;4546;-56
2022/11/16 12:51:33;;;;;;;;;;;;;;;;;;4994972;28;5081;-58
2022/11/16 12:54:12;;;;;;;;;;;;;;;;;;5008392;28;5031;-59
2022/11/16 12:56:57;;;;;;;;;;;;;;;;;;5008509;28;4995;-61
2022/11/16 12:59:22;;;;;;;;;;;;;;;;;;5007188;28;5111;-58
2022/11/16 13:02:00;;;;;;;;;;;;;;;;;;5004912;28;1850;-57
2022/11/16 13:04:33;;;;;;;;;;;;;;;;;;5016922;28;5041;-59
2022/11/16 13:07:03;;;;;;;;;;;;;;;;;;5010641;28;4477;-58
2022/11/16 13:09:32;;;;;;;;;;;;;;;;;;5023714;28;4638;-57
2022/11/16 13:11:59;;;;;;;;;;;;;;;;;;5017460;28;4867;-58
2022/11/16 13:14:26;;;;;;;;;;;;;;;;;;5025755;28;4912;-60
2022/11/16 13:16:51;;;;;;;;;;;;;;;;;;5017831;28;1985;-53
2022/11/16 13:19:17;;;;;;;;;;;;;;;;;;5022682;28;5080;-55
2022/11/16 13:21:45;;;;;;;;;;;;;;;;;;5012573;28;5723;-53
2022/11/16 13:24:13;;;;;;;;;;;;;;;;;;5010145;28;4881;-57
2022/11/16 13:26:44;;;;;;;;;;;;;;;;;;4991085;28;5085;-58
2022/11/16 13:29:15;;;;;;;;;;;;;;;;;;4988579;28;4620;-57
2022/11/16 13:32:00;;;;;;;;;;;;;;;;;;4990697;28;4450;-58
2022/11/16 13:34:30;;;;;;;;;;;;;;;;;;4993318;28;4415;-57
2022/11/16 13:36:55;;;;;;;;;;;;;;;;;;5017485;28;4652;-60
2022/11/16 13:39:40;;;;;;;;;;;;;;;;;;4992836;28;4757;-61
2022/11/16 13:42:06;;;;;;;;;;;;;;;;;;4989830;28;4607;-61
2022/11/16 13:44:31;;;;;;;;;;;;;;;;;;4992528;28;5088;-56
2022/11/16 13:47:03;;;;;;;;;;;;;;;;;;4998329;28;1887;-56
2022/11/16 13:49:35;;;;;;;;;;;;;;;;;;5009215;28;4465;-58
2022/11/16 13:52:02;;;;;;;;;;;;;;;;;;5020344;28;5559;-58
2022/11/16 13:54:43;;;;;;;;;;;;;;;;;;4992266;28;5081;-59
2022/11/16 13:57:21;;;;;;;;;;;;;;;;;;5016506;28;4559;-60
2022/11/16 13:59:46;;;;;;;;;;;;;;;;;;4992016;28;5353;-62
2022/11/16 14:02:30;;;;;;;;;;;;;;;;;;4996457;28;1856;-56
2022/11/16 14:04:59;;;;;;;;;;;;;;;;;;5009832;28;4984;-58
2022/11/16 14:07:28;;;;;;;;;;;;;;;;;;5009364;28;4999;-58
2022/11/16 14:09:54;;;;;;;;;;;;;;;;;;5006469;28;4806;-59
2022/11/16 14:12:37;;;;;;;;;;;;;;;;;;5007627;28;5073;-68
2022/11/16 14:15:16;;;;;;;;;;;;;;;;;;5002284;28;4947;-57
2022/11/16 14:17:48;;;;;;;;;;;;;;;;;;5002525;28;4503;-57
2022/11/16 14:20:13;;;;;;;;;;;;;;;;;;5004951;28;1885;-57
2022/11/16 14:22:41;;;;;;;;;;;;;;;;;;5018633;28;5230;-58
2022/11/16 14:25:13;;;;;;;;;;;;;;;;;;5004186;28;5141;-59
2022/11/16 14:27:50;;;;;;;;;;;;;;;;;;4995172;28;4976;-56
2022/11/16 14:30:20;;;;;;;;;;;;;;;;;;4994926;28;5040;-56
2022/11/16 14:32:46;;;;;;;;;;;;;;;;;;5017853;28;4540;-65
2022/11/16 14:35:30;;;;;;;;;;;;;;;;;;5008181;28;1943;-58
2022/11/16 14:37:56;;;;;;;;;;;;;;;;;;5001357;28;4833;-58
2022/11/16 14:40:21;;;;;;;;;;;;;;;;;;5013209;28;4691;-60
2022/11/16 14:42:49;;;;;;;;;;;;;;;;;;5000268;28;5125;-58
2022/11/16 14:45:16;;;;;;;;;;;;;;;;;;4992594;28;5538;-61
2022/11/16 14:47:41;;;;;;;;;;;;;;;;;;5005787;28;4495;-62
2022/11/16 14:50:16;;;;;;;;;;;;;;;;;;5005820;28;1501;-60
2022/11/16 14:52:46;;;;;;;;;;;;;;;;;;4997598;28;4405;-57
2022/11/16 14:55:18;;;;;;;;;;;;;;;;;;5007515;28;5091;-61
2022/11/16 14:57:43;;;;;;;;;;;;;;;;;;4991844;28;5170;-56
2022/11/16 15:00:19;;;;;;;;;;;;;;;;;;4990551;28;5069;-55
2022/11/16 15:02:49;;;;;;;;;;;;;;;;;;5000020;28;4646;-56
2022/11/16 15:05:15;;;;;;;;;;;;;;;;;;5010107;28;2102;-56
2022/11/16 15:07:41;;;;;;;;;;;;;;;;;;5009813;28;4820;-55
2022/11/16 15:10:09;;;;;;;;;;;;;;;;;;5022183;28;5040;-55
2022/11/16 15:12:41;;;;;;;;;;;;;;;;;;5008884;28;4938;-56
2022/11/16 15:15:12;;;;;;;;;;;;;;;;;;5004462;28;5184;-56
2022/11/16 15:17:38;;;;;;;;;;;;;;;;;;5013152;28;5154;-56
2022/11/16 15:20:23;;;;;;;;;;;;;;;;;;5005720;28;1060;-57
2022/11/16 15:22:52;;;;;;;;;;;;;;;;;;4989275;28;4798;-56
2022/11/16 15:25:23;;;;;;;;;;;;;;;;;;4990866;28;4940;-55
2022/11/16 15:27:49;;;;;;;;;;;;;;;;;;4995188;28;4575;-55
2022/11/16 15:30:18;;;;;;;;;;;;;;;;;;4996936;28;5179;-55
2022/11/16 15:32:43;;;;;;;;;;;;;;;;;;4999555;28;4467;-57
2022/11/16 15:35:27;;;;;;;;;;;;;;;;;;5009012;28;1918;-61
2022/11/16 15:38:12;;;;;;;;;;;;;;;;;;4989678;28;4607;-56
2022/11/16 15:40:37;;;;;;;;;;;;;;;;;;4990509;28;5578;-59
2022/11/16 15:43:03;;;;;;;;;;;;;;;;;;5001121;28;5447;-57
2022/11/16 15:45:29;;;;;;;;;;;;;;;;;;5007815;28;5052;-56
2022/11/16 15:47:54;;;;;;;;;;;;;;;;;;4987389;28;4574;-56
2022/11/16 15:50:21;;;;;;;;;;;;;;;;;;4996002;28;1949;-57
2022/11/16 15:52:49;;;;;;;;;;;;;;;;;;4996109;28;4946;-61
2022/11/16 15:55:27;;;;;;;;;;;;;;;;;;4998232;28;4456;-60
2022/11/16 15:58:05;;;;;;;;;;;;;;;;;;4998522;28;4838;-59
2022/11/16 16:00:32;;;;;;;;;;;;;;;;;;5009297;28;4930;-66
2022/11/16 16:03:01;;;;;;;;;;;;;;;;;;5008665;28;5225;-59
2022/11/16 16:05:53;;;;;;;;;;;;;;;;;;5007981;28;5045;-57
2022/11/16 16:08:25;;;;;;;;;;;;;;;;;;4989331;28;1882;-58
2022/11/16 16:11:00;;;;;;;;;;;;;;;;;;5022702;28;5045;-57
2022/11/16 16:13:26;;;;;;;;;;;;;;;;;;5040321;28;5036;-57
2022/11/16 16:16:09;;;;;;;;;;;;;;;;;;5020615;28;4409;-56
2022/11/16 16:18:40;;;;;;;;;;;;;;;;;;5021698;28;4519;-58
2022/11/16 16:21:05;;;;;;;;;;;;;;;;;;5008988;28;5008;-57
2022/11/16 16:23:31;;;;;;;;;;;;;;;;;;4998790;28;4818;-56
2022/11/16 16:25:56;;;;;;;;;;;;;;;;;;5009496;28;1338;-56
2022/11/16 16:28:21;;;;;;;;;;;;;;;;;;4995534;28;5094;-65
2022/11/16 16:30:49;;;;;;;;;;;;;;;;;;4989095;28;5070;-58
2022/11/16 16:33:16;;;;;;;;;;;;;;;;;;4997356;28;4949;-60
2022/11/16 16:35:41;;;;;;;;;;;;;;;;;;5005666;28;5015;-58
2022/11/16 16:38:08;;;;;;;;;;;;;;;;;;4990428;28;1819;-57
2022/11/16 16:40:33;;;;;;;;;;;;;;;;;;5014871;28;5342;-58
2022/11/16 16:42:58;;;;;;;;;;;;;;;;;;5022412;28;5347;-67
2022/11/16 16:45:34;;;;;;;;;;;;;;;;;;5038858;28;5132;-59
2022/11/16 16:47:59;;;;;;;;;;;;;;;;;;5009007;28;5024;-59
2022/11/16 16:50:24;;;;;;;;;;;;;;;;;;5009688;28;4515;-58
2022/11/16 16:52:50;;;;;;;;;;;;;;;;;;5008089;28;1077;-58
2022/11/16 16:55:15;;;;;;;;;;;;;;;;;;5010240;28;4845;-59
2022/11/16 16:57:40;;;;;;;;;;;;;;;;;;5043183;28;4955;-57
2022/11/16 17:00:06;;;;;;;;;;;;;;;;;;5020133;28;5096;-57
2022/11/16 17:02:31;;;;;;;;;;;;;;;;;;5028342;28;5022;-59
2022/11/16 17:04:56;;;;;;;;;;;;;;;;;;5048918;28;871;-57
2022/11/16 17:07:22;;;;;;;;;;;;;;;;;;5040171;28;4514;-58
2022/11/16 17:09:47;;;;;;;;;;;;;;;;;;5016272;28;4900;-59
2022/11/16 17:12:12;;;;;;;;;;;;;;;;;;5032058;28;5208;-59
2022/11/16 17:14:37;;;;;;;;;;;;;;;;;;5027623;28;4525;-74
2022/11/16 17:17:03;;;;;;;;;;;;;;;;;;5022094;28;1910;-68
2022/11/16 17:19:28;;;;;;;;;;;;;;;;;;5011708;28;4970;-68
2022/11/16 17:21:53;;;;;;;;;;;;;;;;;;5018909;28;5124;-62
2022/11/16 17:24:19;;;;;;;;;;;;;;;;;;5030139;28;4695;-63
2022/11/16 17:26:47;;;;;;;;;;;;;;;;;;5026900;28;5156;-61
2022/11/16 17:29:12;;;;;;;;;;;;;;;;;;5022346;28;4611;-61
2022/11/16 17:31:42;;;;;;;;;;;;;;;;;;5014741;28;4443;-57
2022/11/16 17:34:07;;;;;;;;;;;;;;;;;;5029852;28;5032;-59
2022/11/16 17:36:32;;;;;;;;;;;;;;;;;;5016111;28;5119;-58
2022/11/16 17:38:57;;;;;;;;;;;;;;;;;;5000615;28;5035;-60
2022/11/16 17:41:24;;;;;;;;;;;;;;;;;;5002496;28;4630;-56
2022/11/16 17:43:50;;;;;;;;;;;;;;;;;;4995415;28;1815;-58
2022/11/16 17:46:16;;;;;;;;;;;;;;;;;;5010396;28;4481;-58
2022/11/16 17:48:42;;;;;;;;;;;;;;;;;;4993200;28;5235;-57
2022/11/16 17:51:08;;;;;;;;;;;;;;;;;;5001663;28;5318;-66
2022/11/16 17:53:33;;;;;;;;;;;;;;;;;;4991664;28;5102;-67
2022/11/16 17:55:59;;;;;;;;;;;;;;;;;;5011175;28;1985;-65
2022/11/16 17:58:24;;;;;;;;;;;;;;;;;;5023511;28;5039;-58